sensor_id;sensor_type;location;lat;lon;timestamp;temperature;humidity
52643;DHT22;38531;53.296;6.614;2022-10-31T00:01:54;12.80;99.90
52643;DHT22;38531;53.296;6.614;2022-10-31T00:04:24;12.80;99.90
52643;DHT22;38531;53.296;6.614;2022-10-31T00:06:53;12.80;99.90
52643;DHT22;38531;53.296;6.614;2022-10-31T00:09:24;12.80;99.90
52643;DHT22;38531;53.296;6.614;2022-10-31T00:11:53;12.80;99.90
52643;DHT22;38531;53.296;6.614;2022-10-31T00:14:25;12.70;99.90
52643;DHT22;38531;53.296;6.614;2022-10-31T00:16:57;12.70;99.90
52643;DHT22;38531;53.296;6.614;2022-10-31T00:19:24;12.70;99.90
52643;DHT22;38531;53.296;6.614;2022-10-31T00:21:53;12.60;99.90
52643;DHT22;38531;53.296;6.614;2022-10-31T00:28:02;12.60;99.90
52643;DHT22;38531;53.296;6.614;2022-10-31T00:35:00;12.60;99.90
52643;DHT22;38531;53.296;6.614;2022-10-31T00:38:24;12.50;99.90
52643;DHT22;38531;53.296;6.614;2022-10-31T00:41:25;12.50;99.90
52643;DHT22;38531;53.296;6.614;2022-10-31T00:44:56;12.40;99.90
52643;DHT22;38531;53.296;6.614;2022-10-31T00:48:24;12.50;99.90
52643;DHT22;38531;53.296;6.614;2022-10-31T00:51:35;12.40;99.90
52643;DHT22;38531;53.296;6.614;2022-10-31T00:54:32;12.40;99.90
52643;DHT22;38531;53.296;6.614;2022-10-31T00:57:36;12.40;99.90
52643;DHT22;38531;53.296;6.614;2022-10-31T01:06:27;11.90;99.90
52643;DHT22;38531;53.296;6.614;2022-10-31T01:09:10;12.30;99.90
52643;DHT22;38531;53.296;6.614;2022-10-31T01:12:44;12.30;99.90
52643;DHT22;38531;53.296;6.614;2022-10-31T01:16:04;12.30;99.90
52643;DHT22;38531;53.296;6.614;2022-10-31T01:19:18;12.30;99.90
52643;DHT22;38531;53.296;6.614;2022-10-31T01:22:12;12.30;99.90
52643;DHT22;38531;53.296;6.614;2022-10-31T01:25:25;12.80;99.90
52643;DHT22;38531;53.296;6.614;2022-10-31T01:28:25;12.30;99.90
52643;DHT22;38531;53.296;6.614;2022-10-31T01:31:18;12.30;99.90
52643;DHT22;38531;53.296;6.614;2022-10-31T01:34:46;12.20;99.90
52643;DHT22;38531;53.296;6.614;2022-10-31T01:41:14;12.20;99.90
52643;DHT22;38531;53.296;6.614;2022-10-31T01:47:24;12.20;99.90
52643;DHT22;38531;53.296;6.614;2022-10-31T01:50:49;12.20;99.90
52643;DHT22;38531;53.296;6.614;2022-10-31T01:53:54;12.10;99.90
52643;DHT22;38531;53.296;6.614;2022-10-31T01:56:56;12.30;99.90
52643;DHT22;38531;53.296;6.614;2022-10-31T02:00:03;12.10;99.90
52643;DHT22;38531;53.296;6.614;2022-10-31T02:06:56;12.60;99.90
52643;DHT22;38531;53.296;6.614;2022-10-31T02:10:06;12.10;99.90
52643;DHT22;38531;53.296;6.614;2022-10-31T02:16:06;12.00;99.90
52643;DHT22;38531;53.296;6.614;2022-10-31T02:19:13;12.00;99.90
52643;DHT22;38531;53.296;6.614;2022-10-31T02:36:44;11.90;99.90
52643;DHT22;38531;53.296;6.614;2022-10-31T02:47:14;11.80;99.90
52643;DHT22;38531;53.296;6.614;2022-10-31T03:18:49;11.70;99.90
52643;DHT22;38531;53.296;6.614;2022-10-31T03:22:12;11.60;99.90
52643;DHT22;38531;53.296;6.614;2022-10-31T03:25:16;11.60;99.90
52643;DHT22;38531;53.296;6.614;2022-10-31T03:28:02;11.60;99.90
52643;DHT22;38531;53.296;6.614;2022-10-31T03:31:16;11.60;99.90
52643;DHT22;38531;53.296;6.614;2022-10-31T03:37:54;11.70;99.90
52643;DHT22;38531;53.296;6.614;2022-10-31T03:40:38;11.60;99.90
52643;DHT22;38531;53.296;6.614;2022-10-31T03:46:58;11.30;99.90
52643;DHT22;38531;53.296;6.614;2022-10-31T03:49:59;11.20;99.90
52643;DHT22;38531;53.296;6.614;2022-10-31T04:00:03;11.00;99.90
52643;DHT22;38531;53.296;6.614;2022-10-31T04:06:39;10.90;99.90
52643;DHT22;38531;53.296;6.614;2022-10-31T04:12:18;10.80;99.90
52643;DHT22;38531;53.296;6.614;2022-10-31T04:15:10;10.70;99.90
52643;DHT22;38531;53.296;6.614;2022-10-31T04:18:13;10.70;99.90
52643;DHT22;38531;53.296;6.614;2022-10-31T04:21:14;10.70;99.90
52643;DHT22;38531;53.296;6.614;2022-10-31T04:24:34;10.70;99.90
52643;DHT22;38531;53.296;6.614;2022-10-31T04:38:19;10.60;99.90
52643;DHT22;38531;53.296;6.614;2022-10-31T04:41:57;10.50;99.90
52643;DHT22;38531;53.296;6.614;2022-10-31T04:51:18;10.30;99.90
52643;DHT22;38531;53.296;6.614;2022-10-31T04:54:30;10.30;99.90
52643;DHT22;38531;53.296;6.614;2022-10-31T04:57:19;10.40;99.90
52643;DHT22;38531;53.296;6.614;2022-10-31T05:00:12;10.20;99.90
52643;DHT22;38531;53.296;6.614;2022-10-31T05:03:29;10.20;99.90
52643;DHT22;38531;53.296;6.614;2022-10-31T05:06:38;10.10;99.90
52643;DHT22;38531;53.296;6.614;2022-10-31T05:13:01;10.00;99.90
52643;DHT22;38531;53.296;6.614;2022-10-31T05:16:18;10.00;99.90
52643;DHT22;38531;53.296;6.614;2022-10-31T05:19:32;9.90;99.90
52643;DHT22;38531;53.296;6.614;2022-10-31T05:22:30;9.80;99.90
52643;DHT22;38531;53.296;6.614;2022-10-31T05:25:50;9.80;99.90
52643;DHT22;38531;53.296;6.614;2022-10-31T05:32:12;9.60;99.90
52643;DHT22;38531;53.296;6.614;2022-10-31T05:38:14;9.50;99.90
52643;DHT22;38531;53.296;6.614;2022-10-31T05:47:53;9.50;99.90
52643;DHT22;38531;53.296;6.614;2022-10-31T05:50:54;9.40;99.90
52643;DHT22;38531;53.296;6.614;2022-10-31T05:53:55;9.40;99.90
52643;DHT22;38531;53.296;6.614;2022-10-31T06:00:06;9.20;99.90
52643;DHT22;38531;53.296;6.614;2022-10-31T06:03:30;9.20;99.90
52643;DHT22;38531;53.296;6.614;2022-10-31T06:06:44;9.10;99.90
52643;DHT22;38531;53.296;6.614;2022-10-31T06:09:58;9.00;99.90
52643;DHT22;38531;53.296;6.614;2022-10-31T06:12:53;9.00;99.90
52643;DHT22;38531;53.296;6.614;2022-10-31T06:16:01;8.90;99.90
52643;DHT22;38531;53.296;6.614;2022-10-31T06:19:00;8.90;99.90
52643;DHT22;38531;53.296;6.614;2022-10-31T06:22:05;8.90;99.90
52643;DHT22;38531;53.296;6.614;2022-10-31T06:24:57;8.90;99.90
52643;DHT22;38531;53.296;6.614;2022-10-31T06:27:53;8.90;99.90
52643;DHT22;38531;53.296;6.614;2022-10-31T06:30:36;8.80;99.90
52643;DHT22;38531;53.296;6.614;2022-10-31T06:36:04;8.90;99.90
52643;DHT22;38531;53.296;6.614;2022-10-31T06:38:46;8.80;99.90
52643;DHT22;38531;53.296;6.614;2022-10-31T06:41:45;8.80;99.90
52643;DHT22;38531;53.296;6.614;2022-10-31T06:44:31;8.80;99.90
52643;DHT22;38531;53.296;6.614;2022-10-31T06:47:32;8.80;99.90
52643;DHT22;38531;53.296;6.614;2022-10-31T06:50:34;8.80;99.90
52643;DHT22;38531;53.296;6.614;2022-10-31T06:53:33;8.80;99.90
52643;DHT22;38531;53.296;6.614;2022-10-31T06:56:16;8.70;99.90
52643;DHT22;38531;53.296;6.614;2022-10-31T06:59:07;8.70;99.90
52643;DHT22;38531;53.296;6.614;2022-10-31T07:08:02;8.70;99.90
52643;DHT22;38531;53.296;6.614;2022-10-31T07:10:55;9.40;99.90
52643;DHT22;38531;53.296;6.614;2022-10-31T07:16:44;8.70;99.90
52643;DHT22;38531;53.296;6.614;2022-10-31T07:24:12;8.70;99.90
52643;DHT22;38531;53.296;6.614;2022-10-31T07:26:56;8.60;99.90
52643;DHT22;38531;53.296;6.614;2022-10-31T07:29:47;8.60;99.90
52643;DHT22;38531;53.296;6.614;2022-10-31T07:32:46;8.60;99.90
52643;DHT22;38531;53.296;6.614;2022-10-31T07:38:40;8.70;99.90
52643;DHT22;38531;53.296;6.614;2022-10-31T07:41:51;8.80;99.90
52643;DHT22;38531;53.296;6.614;2022-10-31T07:45:01;8.90;99.90
52643;DHT22;38531;53.296;6.614;2022-10-31T07:47:46;9.00;99.90
52643;DHT22;38531;53.296;6.614;2022-10-31T07:50:46;9.10;99.90
52643;DHT22;38531;53.296;6.614;2022-10-31T07:53:20;9.20;99.90
52643;DHT22;38531;53.296;6.614;2022-10-31T07:56:16;9.30;99.90
52643;DHT22;38531;53.296;6.614;2022-10-31T08:02:03;9.50;99.90
52643;DHT22;38531;53.296;6.614;2022-10-31T08:05:05;9.60;99.90
52643;DHT22;38531;53.296;6.614;2022-10-31T08:08:08;9.80;99.90
52643;DHT22;38531;53.296;6.614;2022-10-31T08:10:58;9.90;99.90
52643;DHT22;38531;53.296;6.614;2022-10-31T08:13:41;10.60;99.90
52643;DHT22;38531;53.296;6.614;2022-10-31T08:16:35;10.20;99.90
52643;DHT22;38531;53.296;6.614;2022-10-31T08:19:39;9.90;99.90
52643;DHT22;38531;53.296;6.614;2022-10-31T08:25:16;10.60;99.90
52643;DHT22;38531;53.296;6.614;2022-10-31T08:28:13;10.60;99.90
52643;DHT22;38531;53.296;6.614;2022-10-31T08:31:15;10.70;99.90
52643;DHT22;38531;53.296;6.614;2022-10-31T08:34:17;10.80;99.90
52643;DHT22;38531;53.296;6.614;2022-10-31T08:37:08;10.80;99.90
52643;DHT22;38531;53.296;6.614;2022-10-31T08:40:16;10.90;99.90
52643;DHT22;38531;53.296;6.614;2022-10-31T08:46:22;11.10;99.90
52643;DHT22;38531;53.296;6.614;2022-10-31T08:49:18;11.10;99.90
52643;DHT22;38531;53.296;6.614;2022-10-31T08:52:25;11.40;99.90
52643;DHT22;38531;53.296;6.614;2022-10-31T08:55:16;11.30;99.90
52643;DHT22;38531;53.296;6.614;2022-10-31T08:58:01;11.40;99.90
52643;DHT22;38531;53.296;6.614;2022-10-31T09:00:58;11.40;99.90
52643;DHT22;38531;53.296;6.614;2022-10-31T09:10:13;11.90;99.90
52643;DHT22;38531;53.296;6.614;2022-10-31T09:12:39;11.70;99.90
52643;DHT22;38531;53.296;6.614;2022-10-31T09:15:05;11.80;99.90
52643;DHT22;38531;53.296;6.614;2022-10-31T09:17:32;11.90;99.90
52643;DHT22;38531;53.296;6.614;2022-10-31T09:19:59;12.00;99.90
52643;DHT22;38531;53.296;6.614;2022-10-31T09:22:26;12.00;99.90
52643;DHT22;38531;53.296;6.614;2022-10-31T09:24:54;12.10;99.90
52643;DHT22;38531;53.296;6.614;2022-10-31T09:27:26;12.20;99.90
52643;DHT22;38531;53.296;6.614;2022-10-31T09:29:54;12.30;99.90
52643;DHT22;38531;53.296;6.614;2022-10-31T09:32:21;12.40;99.90
52643;DHT22;38531;53.296;6.614;2022-10-31T09:34:49;12.40;99.90
52643;DHT22;38531;53.296;6.614;2022-10-31T09:37:24;12.50;99.90
52643;DHT22;38531;53.296;6.614;2022-10-31T09:39:51;12.60;99.90
52643;DHT22;38531;53.296;6.614;2022-10-31T09:50:22;12.90;99.90
52643;DHT22;38531;53.296;6.614;2022-10-31T09:52:59;12.90;99.90
52643;DHT22;38531;53.296;6.614;2022-10-31T09:55:38;13.00;99.90
52643;DHT22;38531;53.296;6.614;2022-10-31T10:01:04;13.50;99.90
52643;DHT22;38531;53.296;6.614;2022-10-31T10:13:51;13.50;99.90
52643;DHT22;38531;53.296;6.614;2022-10-31T10:20:21;13.80;99.90
52643;DHT22;38531;53.296;6.614;2022-10-31T10:26:59;14.00;99.90
52643;DHT22;38531;53.296;6.614;2022-10-31T10:30:24;14.20;99.90
52643;DHT22;38531;53.296;6.614;2022-10-31T10:33:16;14.40;99.90
52643;DHT22;38531;53.296;6.614;2022-10-31T10:36:11;14.50;99.90
52643;DHT22;38531;53.296;6.614;2022-10-31T10:39:08;14.70;99.90
52643;DHT22;38531;53.296;6.614;2022-10-31T10:41:51;14.70;99.90
52643;DHT22;38531;53.296;6.614;2022-10-31T10:44:52;14.90;99.90
52643;DHT22;38531;53.296;6.614;2022-10-31T10:47:56;15.00;99.90
52643;DHT22;38531;53.296;6.614;2022-10-31T10:50:47;15.00;99.90
52643;DHT22;38531;53.296;6.614;2022-10-31T11:02:31;15.20;99.90
52643;DHT22;38531;53.296;6.614;2022-10-31T11:08:40;15.20;99.90
52643;DHT22;38531;53.296;6.614;2022-10-31T11:14:52;15.30;99.90
52643;DHT22;38531;53.296;6.614;2022-10-31T11:17:56;15.40;99.90
52643;DHT22;38531;53.296;6.614;2022-10-31T11:21:01;15.50;99.90
52643;DHT22;38531;53.296;6.614;2022-10-31T11:26:46;15.60;99.90
52643;DHT22;38531;53.296;6.614;2022-10-31T11:32:26;15.80;99.90
52643;DHT22;38531;53.296;6.614;2022-10-31T11:35:31;15.80;99.90
52643;DHT22;38531;53.296;6.614;2022-10-31T11:38:46;15.90;99.90
52643;DHT22;38531;53.296;6.614;2022-10-31T11:41:46;15.80;99.90
52643;DHT22;38531;53.296;6.614;2022-10-31T11:44:35;15.90;99.90
52643;DHT22;38531;53.296;6.614;2022-10-31T11:47:41;15.80;99.90
52643;DHT22;38531;53.296;6.614;2022-10-31T11:50:29;15.70;99.90
52643;DHT22;38531;53.296;6.614;2022-10-31T11:53:54;15.60;99.90
52643;DHT22;38531;53.296;6.614;2022-10-31T11:56:41;15.50;99.90
52643;DHT22;38531;53.296;6.614;2022-10-31T12:02:27;15.40;99.90
52643;DHT22;38531;53.296;6.614;2022-10-31T12:08:23;15.60;99.90
52643;DHT22;38531;53.296;6.614;2022-10-31T12:11:13;15.70;99.90
52643;DHT22;38531;53.296;6.614;2022-10-31T12:14:08;15.70;99.90
52643;DHT22;38531;53.296;6.614;2022-10-31T12:17:27;15.80;99.90
52643;DHT22;38531;53.296;6.614;2022-10-31T12:30:21;15.80;99.90
52643;DHT22;38531;53.296;6.614;2022-10-31T12:40:17;15.90;99.90
52643;DHT22;38531;53.296;6.614;2022-10-31T13:12:14;15.80;99.90
52643;DHT22;38531;53.296;6.614;2022-10-31T13:14:54;16.00;99.90
52643;DHT22;38531;53.296;6.614;2022-10-31T13:21:02;16.00;99.90
52643;DHT22;38531;53.296;6.614;2022-10-31T13:23:50;15.90;99.90
52643;DHT22;38531;53.296;6.614;2022-10-31T13:26:37;15.90;99.90
52643;DHT22;38531;53.296;6.614;2022-10-31T13:29:41;15.90;99.90
52643;DHT22;38531;53.296;6.614;2022-10-31T13:43:04;15.70;99.90
52643;DHT22;38531;53.296;6.614;2022-10-31T13:46:20;15.70;99.90
52643;DHT22;38531;53.296;6.614;2022-10-31T13:49:18;15.30;99.90
52643;DHT22;38531;53.296;6.614;2022-10-31T13:52:15;15.70;99.90
52643;DHT22;38531;53.296;6.614;2022-10-31T14:02:26;15.70;99.90
52643;DHT22;38531;53.296;6.614;2022-10-31T14:05:40;15.70;99.90
52643;DHT22;38531;53.296;6.614;2022-10-31T14:08:26;15.70;99.90
52643;DHT22;38531;53.296;6.614;2022-10-31T14:11:26;15.70;99.90
52643;DHT22;38531;53.296;6.614;2022-10-31T14:17:25;15.70;99.90
52643;DHT22;38531;53.296;6.614;2022-10-31T14:25:44;15.70;99.90
52643;DHT22;38531;53.296;6.614;2022-10-31T14:28:37;15.60;99.90
52643;DHT22;38531;53.296;6.614;2022-10-31T14:34:42;15.60;99.90
52643;DHT22;38531;53.296;6.614;2022-10-31T14:40:05;15.50;99.90
52643;DHT22;38531;53.296;6.614;2022-10-31T14:45:45;15.40;99.90
52643;DHT22;38531;53.296;6.614;2022-10-31T14:48:36;15.40;99.90
52643;DHT22;38531;53.296;6.614;2022-10-31T14:51:21;15.40;99.90
52643;DHT22;38531;53.296;6.614;2022-10-31T14:54:01;15.40;99.90
52643;DHT22;38531;53.296;6.614;2022-10-31T14:56:40;15.30;99.90
52643;DHT22;38531;53.296;6.614;2022-10-31T14:59:11;15.30;99.90
52643;DHT22;38531;53.296;6.614;2022-10-31T15:01:39;15.30;99.90
52643;DHT22;38531;53.296;6.614;2022-10-31T15:04:27;15.20;99.90
52643;DHT22;38531;53.296;6.614;2022-10-31T15:07:21;15.20;99.90
52643;DHT22;38531;53.296;6.614;2022-10-31T15:10:04;15.20;99.90
52643;DHT22;38531;53.296;6.614;2022-10-31T15:12:36;15.20;99.90
52643;DHT22;38531;53.296;6.614;2022-10-31T15:15:17;15.10;99.90
52643;DHT22;38531;53.296;6.614;2022-10-31T15:17:51;15.00;99.90
52643;DHT22;38531;53.296;6.614;2022-10-31T15:20:26;15.00;99.90
52643;DHT22;38531;53.296;6.614;2022-10-31T15:23:02;15.00;99.90
52643;DHT22;38531;53.296;6.614;2022-10-31T15:25:44;14.90;99.90
52643;DHT22;38531;53.296;6.614;2022-10-31T15:28:31;14.80;99.90
52643;DHT22;38531;53.296;6.614;2022-10-31T15:31:25;14.80;99.90
52643;DHT22;38531;53.296;6.614;2022-10-31T15:38:07;14.60;99.90
52643;DHT22;38531;53.296;6.614;2022-10-31T15:41:35;14.50;99.90
52643;DHT22;38531;53.296;6.614;2022-10-31T15:44:34;14.20;99.90
52643;DHT22;38531;53.296;6.614;2022-10-31T15:54:14;13.90;99.90
52643;DHT22;38531;53.296;6.614;2022-10-31T15:57:27;14.10;99.90
52643;DHT22;38531;53.296;6.614;2022-10-31T16:00:25;14.10;99.90
52643;DHT22;38531;53.296;6.614;2022-10-31T16:10:24;13.90;99.90
52643;DHT22;38531;53.296;6.614;2022-10-31T16:12:51;13.90;99.90
52643;DHT22;38531;53.296;6.614;2022-10-31T16:15:19;13.50;99.90
52643;DHT22;38531;53.296;6.614;2022-10-31T16:17:49;13.90;99.90
52643;DHT22;38531;53.296;6.614;2022-10-31T16:20:27;13.90;99.90
52643;DHT22;38531;53.296;6.614;2022-10-31T16:22:56;13.80;99.90
52643;DHT22;38531;53.296;6.614;2022-10-31T16:25:39;13.80;99.90
52643;DHT22;38531;53.296;6.614;2022-10-31T16:28:20;13.80;99.90
52643;DHT22;38531;53.296;6.614;2022-10-31T16:30:56;13.80;99.90
52643;DHT22;38531;53.296;6.614;2022-10-31T16:36:13;13.70;99.90
52643;DHT22;38531;53.296;6.614;2022-10-31T16:38:51;13.70;99.90
52643;DHT22;38531;53.296;6.614;2022-10-31T16:41:28;13.70;99.90
52643;DHT22;38531;53.296;6.614;2022-10-31T16:44:22;13.70;99.90
52643;DHT22;38531;53.296;6.614;2022-10-31T16:47:28;13.70;99.90
52643;DHT22;38531;53.296;6.614;2022-10-31T17:03:42;13.60;99.90
52643;DHT22;38531;53.296;6.614;2022-10-31T17:10:27;13.60;99.90
52643;DHT22;38531;53.296;6.614;2022-10-31T17:13:30;13.50;99.90
52643;DHT22;38531;53.296;6.614;2022-10-31T17:27:03;13.80;99.90
52643;DHT22;38531;53.296;6.614;2022-10-31T17:30:09;13.50;99.90
52643;DHT22;38531;53.296;6.614;2022-10-31T17:33:28;13.50;99.90
52643;DHT22;38531;53.296;6.614;2022-10-31T17:36:32;13.50;99.90
52643;DHT22;38531;53.296;6.614;2022-10-31T17:39:01;13.50;99.90
52643;DHT22;38531;53.296;6.614;2022-10-31T17:44:31;13.80;99.90
52643;DHT22;38531;53.296;6.614;2022-10-31T17:47:19;13.50;99.90
52643;DHT22;38531;53.296;6.614;2022-10-31T17:50:16;13.50;99.90
52643;DHT22;38531;53.296;6.614;2022-10-31T17:53:03;13.40;99.90
52643;DHT22;38531;53.296;6.614;2022-10-31T17:55:39;13.40;99.90
52643;DHT22;38531;53.296;6.614;2022-10-31T17:58:11;13.40;99.90
52643;DHT22;38531;53.296;6.614;2022-10-31T18:00:53;13.40;99.90
52643;DHT22;38531;53.296;6.614;2022-10-31T18:07:26;13.40;99.90
52643;DHT22;38531;53.296;6.614;2022-10-31T18:10:19;13.40;99.90
52643;DHT22;38531;53.296;6.614;2022-10-31T18:13:52;13.40;99.90
52643;DHT22;38531;53.296;6.614;2022-10-31T18:17:01;13.40;99.90
52643;DHT22;38531;53.296;6.614;2022-10-31T18:30:33;13.70;99.90
52643;DHT22;38531;53.296;6.614;2022-10-31T18:33:21;13.40;99.90
52643;DHT22;38531;53.296;6.614;2022-10-31T18:40:32;13.40;99.90
52643;DHT22;38531;53.296;6.614;2022-10-31T18:47:03;13.50;99.90
52643;DHT22;38531;53.296;6.614;2022-10-31T19:00:55;13.40;99.90
52643;DHT22;38531;53.296;6.614;2022-10-31T19:04:12;13.30;99.90
52643;DHT22;38531;53.296;6.614;2022-10-31T19:14:22;13.40;99.90
52643;DHT22;38531;53.296;6.614;2022-10-31T19:17:41;13.30;99.90
52643;DHT22;38531;53.296;6.614;2022-10-31T19:28:07;13.20;99.90
52643;DHT22;38531;53.296;6.614;2022-10-31T19:31:06;13.20;99.90
52643;DHT22;38531;53.296;6.614;2022-10-31T19:34:10;13.10;99.90
52643;DHT22;38531;53.296;6.614;2022-10-31T19:36:41;13.10;99.90
52643;DHT22;38531;53.296;6.614;2022-10-31T19:39:20;13.10;99.90
52643;DHT22;38531;53.296;6.614;2022-10-31T19:45:08;13.60;99.90
52643;DHT22;38531;53.296;6.614;2022-10-31T19:47:46;13.00;99.90
52643;DHT22;38531;53.296;6.614;2022-10-31T19:50:23;13.00;99.90
52643;DHT22;38531;53.296;6.614;2022-10-31T19:52:52;13.00;99.90
52643;DHT22;38531;53.296;6.614;2022-10-31T19:55:39;13.00;99.90
52643;DHT22;38531;53.296;6.614;2022-10-31T19:58:07;12.90;99.90
52643;DHT22;38531;53.296;6.614;2022-10-31T20:00:39;12.80;99.90
52643;DHT22;38531;53.296;6.614;2022-10-31T20:03:09;12.80;99.90
52643;DHT22;38531;53.296;6.614;2022-10-31T20:05:53;12.80;99.90
52643;DHT22;38531;53.296;6.614;2022-10-31T20:08:28;12.80;99.90
52643;DHT22;38531;53.296;6.614;2022-10-31T20:11:27;12.80;99.90
52643;DHT22;38531;53.296;6.614;2022-10-31T20:17:43;12.70;99.90
52643;DHT22;38531;53.296;6.614;2022-10-31T20:21:28;12.70;99.90
52643;DHT22;38531;53.296;6.614;2022-10-31T20:24:30;13.00;99.90
52643;DHT22;38531;53.296;6.614;2022-10-31T20:27:26;12.70;99.90
52643;DHT22;38531;53.296;6.614;2022-10-31T20:30:33;13.10;99.90
52643;DHT22;38531;53.296;6.614;2022-10-31T20:40:41;12.80;99.90
52643;DHT22;38531;53.296;6.614;2022-10-31T20:44:06;13.20;99.90
52643;DHT22;38531;53.296;6.614;2022-10-31T20:47:03;12.80;99.90
52643;DHT22;38531;53.296;6.614;2022-10-31T20:50:05;12.70;99.90
52643;DHT22;38531;53.296;6.614;2022-10-31T20:53:34;12.70;99.90
52643;DHT22;38531;53.296;6.614;2022-10-31T21:00:47;12.70;99.90
52643;DHT22;38531;53.296;6.614;2022-10-31T21:06:55;12.80;99.90
52643;DHT22;38531;53.296;6.614;2022-10-31T21:10:06;12.60;99.90
52643;DHT22;38531;53.296;6.614;2022-10-31T21:16:56;12.50;99.90
52643;DHT22;38531;53.296;6.614;2022-10-31T21:20:44;12.50;99.90
52643;DHT22;38531;53.296;6.614;2022-10-31T21:31:04;12.30;99.90
52643;DHT22;38531;53.296;6.614;2022-10-31T21:44:10;12.20;99.90
52643;DHT22;38531;53.296;6.614;2022-10-31T21:47:11;12.00;99.90
52643;DHT22;38531;53.296;6.614;2022-10-31T21:50:26;12.10;99.90
52643;DHT22;38531;53.296;6.614;2022-10-31T21:53:39;12.10;99.90
52643;DHT22;38531;53.296;6.614;2022-10-31T21:57:12;12.00;99.90
52643;DHT22;38531;53.296;6.614;2022-10-31T22:04:08;11.90;99.90
52643;DHT22;38531;53.296;6.614;2022-10-31T22:07:16;11.90;99.90
52643;DHT22;38531;53.296;6.614;2022-10-31T22:17:28;11.80;99.90
52643;DHT22;38531;53.296;6.614;2022-10-31T22:24:28;11.80;99.90
52643;DHT22;38531;53.296;6.614;2022-10-31T22:31:18;11.80;99.90
52643;DHT22;38531;53.296;6.614;2022-10-31T22:37:33;11.80;99.90
52643;DHT22;38531;53.296;6.614;2022-10-31T22:40:35;11.80;99.90
52643;DHT22;38531;53.296;6.614;2022-10-31T22:44:16;11.80;99.90
52643;DHT22;38531;53.296;6.614;2022-10-31T22:50:54;11.80;99.90
52643;DHT22;38531;53.296;6.614;2022-10-31T22:57:24;11.80;99.90
52643;DHT22;38531;53.296;6.614;2022-10-31T23:00:40;11.70;99.90
52643;DHT22;38531;53.296;6.614;2022-10-31T23:04:04;11.80;99.90
52643;DHT22;38531;53.296;6.614;2022-10-31T23:10:58;11.60;99.90
52643;DHT22;38531;53.296;6.614;2022-10-31T23:17:51;11.80;99.90
52643;DHT22;38531;53.296;6.614;2022-10-31T23:21:25;11.70;99.90
52643;DHT22;38531;53.296;6.614;2022-10-31T23:28:39;11.70;99.90
52643;DHT22;38531;53.296;6.614;2022-10-31T23:31:54;11.70;99.90
52643;DHT22;38531;53.296;6.614;2022-10-31T23:38:52;11.70;99.90
52643;DHT22;38531;53.296;6.614;2022-10-31T23:41:53;11.80;99.90
52643;DHT22;38531;53.296;6.614;2022-10-31T23:45:10;11.70;99.90
52643;DHT22;38531;53.296;6.614;2022-10-31T23:48:34;11.70;99.90
52643;DHT22;38531;53.296;6.614;2022-10-31T23:51:56;11.80;99.90
